Station: Mackay  

  Atmospheric Gas Attenuation - ITU Rec 676-11   ----------------- dB/100km -----------------
Date Time Temp RH % AH g/m3 Dew Point Wind Direction Speed kph Gust kph Barometer mB Rainfall Since 9am 24GHz 47GHz 76GHz 122GHz 134GHz 241GHz
10/05 04:30 20.4 89 15.74 18.5 17 26 1019.3 0 34.4 36.3 66.6 176.0 188.4 653.5
10/05 04:20 20.3 89 15.65 18.4 20 26 1019.1 0 34.2 36.1 66.3 175.0 187.3 649.5
10/05 04:10 20.3 89 15.65 18.4 19 24 1019.1 0 34.2 36.1 66.3 175.0 187.3 649.5
10/05 04:00 20.3 89 15.65 18.4 19 26 1019 0 34.2 36.1 66.3 175.0 187.2 649.4
10/05 03:50 20.4 90 15.92 18.7 19 22 1019 0 34.8 36.6 67.4 178.1 191.1 662.9
10/05 03:40 20.2 90 15.74 18.5 17 20 1019 0 34.4 36.3 66.8 176.4 188.9 655.1
10/05 03:30 20.3 90 15.83 18.6 17 24 1019.1 0 34.6 36.5 67.1 177.3 190.0 659.0
10/05 03:20 20.2 91 15.91 18.7 17 20 1019.1 0 34.8 36.6 67.6 178.5 191.5 664.2
10/05 03:10 20.1 90 15.64 18.4 19 26 1019 0 34.2 36.2 66.4 175.4 187.6 650.6
10/05 03:00 20 91 15.73 18.5 17 24 1019 0 34.4 36.4 66.9 176.7 189.2 656.3
10/05 02:50 20 91 15.73 18.5 13 19 1019.1 0 34.4 36.4 66.9 176.7 189.2 656.3
10/05 02:40 19.9 90 15.46 18.2 17 20 1019.3 0 33.9 35.9 65.8 173.6 185.4 643.0
10/05 02:30 20 89 15.38 18.1 17 24 1019.4 0 33.7 35.8 65.3 172.4 184.0 637.9
10/05 02:20 20 90 15.55 18.3 15 17 1019.5 0 34.0 36.1 66.1 174.6 186.5 647.0
10/05 02:10 20.2 89 15.56 18.3 15 17 1019.6 0 34.0 36.0 66.0 174.2 186.2 645.8
10/05 02:00 20.2 90 15.74 18.5 15 26 1019.7 0 34.4 36.4 66.8 176.5 189.0 655.4
10/05 01:50 20.1 91 15.82 18.6 13 19 1019.9 0 34.6 36.6 67.3 177.7 190.5 660.6
10/05 01:40 19.7 92 15.62 18.4 15 22 1019.9 0 34.2 36.4 66.7 176.2 188.4 653.4
10/05 01:30 19.3 92 15.26 18 13 17 1020 0 33.5 35.9 65.4 172.6 183.9 637.8
10/05 01:20 19.2 91 15 17.7 13 15 1020 0 32.9 35.4 64.3 169.7 180.2 624.8
10/05 01:10 19.1 92 15.08 17.8 13 15 1020 0 33.1 35.6 64.7 170.9 181.7 629.9
10/05 01:00 19 91 14.83 17.5 11 15 1020.2 0 32.6 35.2 63.7 168.0 178.2 617.6
10/05 00:50 19.1 91 14.92 17.6 11 13 1020.1 0 32.8 35.3 64.0 168.9 179.3 621.5
10/05 00:40 19.3 90 14.93 17.6 11 11 1020.2 0 32.8 35.2 63.9 168.6 179.0 620.4
10/05 00:30 19.5 88 14.77 17.5 13 19 1020.3 0 32.4 34.9 63.0 166.2 176.1 610.5
10/05 00:20 19.9 87 14.95 17.7 13 15 1020.3 0 32.8 35.0 63.5 167.5 177.8 616.6
10/05 00:10 20.5 84 14.95 17.7 15 19 1020.4 0 32.7 34.8 63.0 166.2 176.4 611.9
10/05 00:00 21.9 83 16.02 18.9 17 28 1020.4 0 34.9 36.2 66.7 176.1 189.0 655.8
09/05 23:50 21.8 84 16.11 19 13 17 1020.3 0 35.1 36.4 67.2 177.4 190.6 661.3
09/05 23:40 21.9 84 16.21 19.1 17 20 1020.4 0 35.3 36.5 67.5 178.4 191.9 665.7
09/05 23:30 22 84 16.3 19.2 19 32 1020.4 0 35.5 36.6 67.9 179.3 193.0 669.6
09/05 23:20 22.2 83 16.29 19.2 19 26 1020.4 0 35.4 36.5 67.7 178.7 192.3 667.3
09/05 23:10 22.4 80 15.89 18.8 19 28 1020.4 0 34.6 35.7 65.6 173.4 185.8 644.8
09/05 23:00 22.5 77 15.38 18.3 19 30 1020.5 0 33.5 34.8 63.3 167.1 178.1 617.9
09/05 22:50 22.5 77 15.38 18.3 20 26 1020.5 0 33.5 34.8 63.3 167.1 178.1 617.9
09/05 22:40 22.5 78 15.58 18.5 17 24 1020.5 0 33.9 35.1 64.2 169.4 181.0 628.1
09/05 22:30 22.4 80 15.89 18.8 17 30 1020.5 0 34.6 35.7 65.7 173.4 185.8 644.8
09/05 22:20 22.4 79 15.69 18.6 17 22 1020.6 0 34.1 35.4 64.8 171.0 182.9 634.6
09/05 22:10 22.3 80 15.8 18.7 17 24 1020.7 0 34.4 35.6 65.3 172.6 184.8 641.1
09/05 22:00 22.3 81 15.99 18.9 19 32 1020.7 0 34.8 36.0 66.2 174.8 187.6 650.9
09/05 21:50 22.2 81 15.9 18.8 15 19 1020.9 0 34.6 35.8 65.9 174.0 186.5 647.2
09/05 21:40 22.2 82 16.1 19 17 22 1021 0 35.0 36.2 66.8 176.5 189.5 657.7
09/05 21:30 22.2 83 16.29 19.2 17 28 1021.2 0 35.4 36.6 67.7 178.8 192.4 667.7
09/05 21:20 22.2 83 16.29 19.2 22 32 1021.1 0 35.4 36.6 67.7 178.8 192.4 667.6
09/05 21:10 22.4 80 15.89 18.8 19 24 1021 0 34.5 35.8 65.7 173.5 185.9 645.1
09/05 21:00 22.5 81 16.18 19.1 15 26 1020.9 0 35.2 36.2 66.9 176.7 190.0 659.2
09/05 20:50 22.4 81 16.09 19 17 24 1021 0 35.0 36.1 66.6 175.9 188.9 655.4
09/05 20:40 22.3 81 15.99 18.9 15 19 1021 0 34.8 36.0 66.2 174.9 187.6 651.1
09/05 20:30 22.3 82 16.19 19.1 17 28 1021 0 35.2 36.3 67.1 177.3 190.6 661.5
09/05 20:20 22.3 82 16.19 19.1 17 20 1021 0 35.2 36.3 67.1 177.3 190.6 661.5
09/05 20:10 22.2 83 16.29 19.2 13 22 1021 0 35.4 36.6 67.7 178.8 192.4 667.6
09/05 20:00 22.1 83 16.2 19.1 19 30 1020.9 0 35.2 36.4 67.4 177.9 191.3 663.7
09/05 19:50 22 83 16.11 19 17 26 1020.8 0 35.1 36.3 67.0 177.0 190.2 659.8
09/05 19:40 22.1 82 16.01 18.9 17 24 1020.7 0 34.8 36.1 66.5 175.5 188.4 653.7
09/05 19:30 22.2 82 16.1 19 17 33 1020.6 0 35.0 36.2 66.8 176.4 189.5 657.5
09/05 19:20 22.2 81 15.9 18.8 17 20 1020.4 0 34.6 35.8 65.9 173.9 186.5 647.0
09/05 19:10 22.1 80 15.62 18.5 15 22 1020.3 0 34.0 35.4 64.7 170.8 182.5 633.3
09/05 19:00 22 80 15.53 18.4 17 28 1020.2 0 33.8 35.2 64.3 169.9 181.4 629.5
09/05 18:50 21.8 80 15.35 18.2 15 24 1020.1 0 33.5 35.0 63.7 168.2 179.3 621.8
09/05 18:40 21.6 79 14.98 17.8 13 19 1019.9 0 32.7 34.4 62.2 164.2 174.3 604.4
09/05 18:30 21.5 80 15.08 17.9 15 26 1019.7 0 32.9 34.6 62.7 165.5 175.9 610.2
09/05 18:20 21.5 80 15.08 17.9 11 15 1019.6 0 32.9 34.6 62.7 165.5 175.9 610.2
09/05 18:10 21.3 79 14.72 17.5 17 24 1019.4 0 32.2 34.0 61.2 161.6 171.1 593.3
09/05 18:00 21.3 78 14.54 17.3 17 30 1019.4 0 31.8 33.7 60.4 159.5 168.5 584.2
09/05 17:50 21.2 78 14.45 17.2 13 19 1019.3 0 31.6 33.6 60.1 158.6 167.4 580.4
09/05 17:40 21.3 76 14.17 16.9 17 20 1019.3 0 31.0 33.0 58.8 155.2 163.1 565.6
09/05 17:30 21.4 75 14.06 16.8 17 24 1019.2 0 30.7 32.8 58.3 153.7 161.4 559.4
09/05 17:20 21.4 73 13.68 16.4 17 22 1019.1 0 29.9 32.1 56.6 149.3 156.0 540.5
09/05 17:10 21.4 72 13.5 16.1 19 20 1019.1 0 29.6 31.8 55.8 147.2 153.4 531.7
09/05 17:00 21.5 71 13.39 16 15 28 1019 0 29.3 31.6 55.3 145.8 151.7 525.6
09/05 16:50 21.7 69 13.16 15.8 17 22 1018.8 0 28.8 31.1 54.2 142.8 148.1 513.0
09/05 16:40 22 68 13.2 15.8 13 17 1018.7 0 28.9 31.1 54.1 142.7 148.0 513.0
09/05 16:30 22.1 67 13.08 15.7 15 26 1018.7 0 28.6 30.8 53.5 141.1 146.2 506.5
09/05 16:20 22.3 66 13.03 15.6 17 28 1018.6 0 28.5 30.7 53.2 140.2 145.1 502.8
09/05 16:10 22.4 65 12.91 15.5 13 17 1018.5 0 28.2 30.4 52.6 138.7 143.3 496.4
09/05 16:00 22.5 65 12.98 15.6 17 28 1018.4 0 28.4 30.5 52.8 139.3 144.0 499.1
09/05 15:50 22.6 63 12.66 15.2 17 20 1018.4 0 27.7 30.0 51.5 135.6 139.5 483.4
09/05 15:40 22.9 64 13.08 15.7 19 24 1018.2 0 28.6 30.5 53.0 139.6 144.6 501.2
09/05 15:30 22.9 63 12.87 15.5 17 28 1018 0 28.1 30.2 52.1 137.3 141.8 491.2
09/05 15:20 22.8 63 12.8 15.4 13 17 1018 0 28.0 30.1 51.9 136.7 141.0 488.5
09/05 15:10 23 63 12.95 15.6 15 28 1018 0 28.3 30.3 52.4 138.0 142.7 494.3
09/05 15:00 23.3 63 13.17 15.9 17 28 1017.9 0 28.7 30.5 53.1 139.9 145.1 502.8
09/05 14:50 23.2 61 12.68 15.3 19 26 1018 0 27.7 29.8 51.1 134.7 138.7 480.5
09/05 14:40 23 60 12.33 14.8 19 26 1017.9 0 27.0 29.3 49.8 131.3 134.4 465.4
09/05 14:30 23.2 58 12.06 14.7 19 30 1017.8 0 26.4 28.8 48.6 128.1 130.5 451.8
09/05 14:20 23.5 60 12.69 15.5 19 24 1018 0 27.7 29.7 51.0 134.3 138.3 479.1
09/05 14:10 23.2 58 12.06 14.5 20 28 1018 0 26.4 28.8 48.6 128.1 130.5 451.9
09/05 14:00 23.2 58 12.06 14.7 19 33 1018.1 0 26.4 28.8 48.6 128.1 130.5 451.9
09/05 13:50 23.4 59 12.41 14.9 20 32 1018.2 0 27.1 29.3 49.9 131.5 134.8 466.8
09/05 13:40 23.3 60 12.54 15.1 17 24 1018.4 0 27.4 29.5 50.5 133.1 136.7 473.5
09/05 13:30 23.6 60 12.76 15.4 20 35 1018.4 0 27.8 29.8 51.2 135.0 139.1 481.9
09/05 13:20 23.4 57 11.99 14.4 22 30 1018.5 0 26.2 28.6 48.3 127.1 129.3 447.7
09/05 13:10 23.1 57 11.78 14.1 17 26 1018.4 0 25.8 28.4 47.6 125.3 127.0 439.8
09/05 13:00 23.6 57 12.12 14.6 19 32 1018.6 0 26.5 28.8 48.7 128.1 130.7 452.5
09/05 12:50 23.3 57 11.92 14.3 15 22 1018.7 0 26.1 28.5 48.0 126.5 128.6 445.2
09/05 12:40 23.2 56 11.64 13.9 22 32 1018.8 0 25.5 28.1 47.0 123.7 125.1 433.1
09/05 12:30 23 56 11.51 13.8 22 37 1018.9 0 25.2 28.0 46.6 122.7 123.8 428.3
09/05 12:20 23.1 54 11.16 13.3 19 26 1019.1 0 24.5 27.4 45.2 118.9 119.1 412.2
09/05 12:10 23.6 55 11.7 14 19 24 1019.2 0 25.6 28.1 47.0 123.8 125.3 433.7
09/05 12:00 23.3 51 10.66 12.6 20 33 1019.3 0 23.4 26.6 43.2 113.5 112.6 389.2

Last Refresh: 10-May-2026 04:14:31

Bureau of Meteorology